createdAt,value
2022-08-26T06:27:59.587Z,24.51
2022-08-26T06:29:02.958Z,24.55
2022-08-26T06:30:03.601Z,24.51
2022-08-26T06:31:06.782Z,24.47
2022-08-26T06:32:08.746Z,24.43
2022-08-26T06:33:08.410Z,24.37
2022-08-26T06:34:10.658Z,24.29
2022-08-26T06:35:11.846Z,24.2
2022-08-26T06:36:13.773Z,24.11
2022-08-26T06:37:14.418Z,24.02
2022-08-26T06:38:14.834Z,23.98
2022-08-26T06:39:17.668Z,23.92
2022-08-26T06:40:20.307Z,23.82
2022-08-26T06:41:23.574Z,23.79
2022-08-26T06:42:24.399Z,23.75
2022-08-26T06:43:27.413Z,23.74
2022-08-26T06:44:28.211Z,23.74
2022-08-26T06:45:31.070Z,23.73
2022-08-26T06:46:31.279Z,23.74
2022-08-26T06:47:34.578Z,23.78
2022-08-26T06:48:35.388Z,23.8
2022-08-26T06:49:38.246Z,23.84
2022-08-26T06:50:39.243Z,23.81
2022-08-26T06:51:39.690Z,23.81
2022-08-26T06:52:42.534Z,23.83
2022-08-26T06:53:45.537Z,23.87
2022-08-26T06:54:48.471Z,23.84
2022-08-26T06:55:51.725Z,23.89
2022-08-26T06:56:51.591Z,23.89
2022-08-26T06:57:54.399Z,23.92
2022-08-26T06:58:57.186Z,23.87
2022-08-26T07:00:00.155Z,23.88
2022-08-26T07:01:09.198Z,23.93
2022-08-26T07:02:04.365Z,23.94
2022-08-26T07:03:04.624Z,23.99
2022-08-26T07:04:04.527Z,24.01
2022-08-26T07:05:06.521Z,23.98
2022-08-26T07:06:08.556Z,23.99
2022-08-26T07:07:11.725Z,24
2022-08-26T07:08:14.489Z,24.01
2022-08-26T07:09:17.283Z,24.09
2022-08-26T07:10:20.147Z,24.15
2022-08-26T07:11:23.294Z,24.18
2022-08-26T07:12:23.771Z,24.24
2022-08-26T07:13:30.027Z,24.29
2022-08-26T07:14:26.871Z,24.35
2022-08-26T07:15:31.138Z,24.36
2022-08-26T07:16:33.367Z,24.38
2022-08-26T07:17:32.345Z,24.4
2022-08-26T07:18:34.652Z,24.45
2022-08-26T07:19:37.475Z,24.51
2022-08-26T07:20:40.248Z,24.56
2022-08-26T07:21:42.387Z,24.61
2022-08-26T07:22:45.206Z,24.66
2022-08-26T07:23:48.119Z,24.65
2022-08-26T07:24:49.017Z,24.68
2022-08-26T07:25:52.193Z,24.72
2022-08-26T07:26:54.985Z,24.78
2022-08-26T07:27:58.029Z,24.85
2022-08-26T07:28:58.239Z,24.89
2022-08-26T07:30:04.088Z,24.96
2022-08-26T07:31:04.318Z,25.04
2022-08-26T07:32:05.564Z,25.09
2022-08-26T07:33:08.990Z,25.17
2022-08-26T07:34:10.481Z,25.27
2022-08-26T07:35:13.307Z,25.34
2022-08-26T07:36:16.130Z,25.43
2022-08-26T07:37:19.445Z,25.5
2022-08-26T07:38:22.348Z,25.6
2022-08-26T07:39:24.009Z,25.65
2022-08-26T07:40:27.622Z,25.65
2022-08-26T07:41:27.782Z,25.69
2022-08-26T07:42:30.705Z,25.7
2022-08-26T07:43:34.271Z,25.73
2022-08-26T07:44:36.546Z,25.82
2022-08-26T07:45:39.423Z,25.89
2022-08-26T07:46:42.240Z,25.95
2022-08-26T07:47:42.332Z,26.03
2022-08-26T07:48:46.249Z,26.06
2022-08-26T07:49:46.556Z,26.08
2022-08-26T07:50:47.129Z,26.12
2022-08-26T07:51:48.975Z,26.16
2022-08-26T07:52:51.832Z,26.21
2022-08-26T07:53:53.107Z,26.27
2022-08-26T07:54:57.673Z,26.33
2022-08-26T07:55:56.042Z,26.37
2022-08-26T07:56:58.983Z,26.46
2022-08-26T07:57:59.083Z,26.54
2022-08-26T07:59:02.050Z,26.61
2022-08-26T08:00:04.027Z,26.69
2022-08-26T08:01:06.932Z,26.75
2022-08-26T08:02:07.072Z,26.8
2022-08-26T08:03:08.280Z,26.87
2022-08-26T08:04:10.297Z,26.92
2022-08-26T08:05:10.221Z,26.98
2022-08-26T08:06:11.217Z,27.04
2022-08-26T08:07:14.105Z,27.09
2022-08-26T08:08:17.387Z,27.1
2022-08-26T08:09:20.278Z,27.17
2022-08-26T08:10:21.923Z,27.18
2022-08-26T08:11:22.492Z,27.17
2022-08-26T08:12:25.680Z,27.16
2022-08-26T08:13:28.476Z,27.14
2022-08-26T08:14:28.608Z,27.19
2022-08-26T08:15:31.485Z,27.22
2022-08-26T08:16:33.199Z,27.26
2022-08-26T08:17:32.961Z,27.27
2022-08-26T08:18:34.012Z,27.31
2022-08-26T08:19:36.904Z,27.39
2022-08-26T08:20:38.760Z,27.52
2022-08-26T08:21:40.543Z,27.59
2022-08-26T08:22:42.006Z,27.64
2022-08-26T08:23:45.420Z,27.73
2022-08-26T08:24:49.649Z,27.8
2022-08-26T08:25:49.176Z,27.87
2022-08-26T08:26:50.726Z,27.89
2022-08-26T08:27:52.230Z,27.93
2022-08-26T08:28:53.465Z,28
2022-08-26T08:29:53.944Z,28.06
2022-08-26T08:30:54.113Z,28.11
2022-08-26T08:31:58.137Z,28.2
2022-08-26T08:33:05.404Z,28.29
2022-08-26T08:34:01.801Z,28.35
2022-08-26T08:35:10.972Z,28.42
2022-08-26T08:36:09.261Z,28.51
2022-08-26T08:37:10.831Z,28.61
2022-08-26T08:38:10.341Z,28.71
2022-08-26T08:39:11.868Z,28.82
2022-08-26T08:40:14.708Z,28.9
2022-08-26T08:41:17.898Z,29.04
2022-08-26T08:42:21.958Z,29.22
2022-08-26T08:43:23.164Z,29.28
2022-08-26T08:45:30.452Z,29.38
2022-08-26T08:46:30.131Z,29.4
2022-08-26T08:47:30.867Z,29.42
2022-08-26T08:48:33.656Z,29.48
2022-08-26T08:49:36.470Z,29.51
2022-08-26T08:50:39.920Z,29.51
2022-08-26T08:51:41.964Z,29.55
2022-08-26T08:52:43.736Z,29.62
2022-08-26T08:53:46.572Z,29.62
2022-08-26T08:54:49.593Z,29.64
2022-08-26T08:55:49.842Z,29.67
2022-08-26T08:56:52.815Z,29.73
2022-08-26T08:57:55.669Z,29.77
2022-08-26T08:58:58.660Z,29.91
2022-08-26T08:59:58.631Z,29.97
2022-08-26T09:00:59.457Z,30.1
2022-08-26T09:02:00.222Z,30.13
2022-08-26T09:03:01.717Z,30.19
2022-08-26T09:04:04.498Z,30.26
2022-08-26T09:05:07.339Z,30.31
2022-08-26T09:06:07.637Z,30.36
2022-08-26T09:07:08.367Z,30.43
2022-08-26T09:08:11.577Z,30.52
2022-08-26T09:09:11.768Z,30.62
2022-08-26T09:10:14.530Z,30.75
2022-08-26T09:11:17.312Z,30.84
2022-08-26T09:12:20.242Z,30.96
2022-08-26T09:13:24.993Z,31.05
2022-08-26T09:14:23.289Z,31.08
2022-08-26T09:15:27.499Z,31.12
2022-08-26T09:16:26.546Z,31.19
2022-08-26T09:17:29.814Z,31.22
2022-08-26T09:18:32.759Z,31.29
2022-08-26T09:19:35.545Z,31.31
2022-08-26T09:20:35.560Z,31.41
2022-08-26T09:21:36.512Z,31.39
2022-08-26T09:22:39.169Z,31.43
2022-08-26T09:23:41.754Z,31.46
2022-08-26T09:24:48.196Z,31.56
2022-08-26T09:25:45.248Z,31.66
2022-08-26T09:26:47.369Z,31.74
2022-08-26T09:27:50.357Z,31.8
2022-08-26T09:28:51.178Z,31.85
2022-08-26T09:29:53.971Z,31.91
2022-08-26T09:30:56.835Z,31.93
2022-08-26T09:31:59.963Z,31.98
2022-08-26T09:33:02.746Z,31.99
2022-08-26T09:34:03.456Z,31.97
2022-08-26T09:35:06.792Z,31.98
2022-08-26T09:36:09.858Z,32.02
2022-08-26T09:37:11.266Z,32.06
2022-08-26T09:38:12.264Z,32.13
2022-08-26T09:39:14.261Z,32.25
2022-08-26T09:40:17.798Z,32.35
2022-08-26T09:41:19.643Z,32.43
2022-08-26T09:42:20.583Z,32.52
2022-08-26T09:43:23.381Z,32.6
2022-08-26T09:44:26.187Z,32.72
2022-08-26T09:45:29.032Z,32.78
2022-08-26T09:46:29.431Z,32.83
2022-08-26T09:47:29.632Z,32.95
2022-08-26T09:48:32.463Z,32.91
2022-08-26T09:49:35.947Z,32.91
2022-08-26T09:50:35.896Z,32.9
2022-08-26T09:51:38.877Z,32.93
2022-08-26T09:52:42.559Z,32.97
2022-08-26T09:53:42.421Z,33.1
2022-08-26T09:54:45.402Z,33.19
2022-08-26T09:55:45.566Z,33.32
2022-08-26T09:56:48.364Z,33.36
2022-08-26T09:57:51.331Z,33.41
2022-08-26T09:58:54.271Z,33.53
2022-08-26T09:59:57.040Z,33.55
2022-08-26T10:00:59.917Z,33.58
2022-08-26T10:02:03.330Z,33.65
2022-08-26T10:03:05.367Z,33.64
2022-08-26T10:04:08.267Z,33.7
2022-08-26T10:05:11.648Z,33.75
2022-08-26T10:06:14.449Z,33.73
2022-08-26T10:07:15.033Z,33.81
2022-08-26T10:08:15.435Z,33.9
2022-08-26T10:09:18.610Z,33.9
2022-08-26T10:10:19.359Z,33.87
2022-08-26T10:11:22.228Z,33.89
2022-08-26T10:12:25.512Z,33.95
2022-08-26T10:13:29.505Z,33.99
2022-08-26T10:14:29.090Z,33.99
2022-08-26T10:15:29.813Z,34.01
2022-08-26T10:16:31.536Z,34.15
2022-08-26T10:17:34.442Z,34.3
2022-08-26T10:18:35.996Z,34.35
2022-08-26T10:19:41.910Z,34.41
2022-08-26T10:20:39.811Z,34.41
2022-08-26T10:21:43.124Z,34.51
2022-08-26T10:22:45.773Z,34.65
2022-08-26T10:23:46.292Z,34.68
2022-08-26T10:24:51.901Z,34.7
2022-08-26T10:25:51.186Z,34.68
2022-08-26T10:26:51.681Z,34.66
2022-08-26T10:27:54.448Z,34.67
2022-08-26T10:28:54.818Z,34.68
2022-08-26T10:29:57.615Z,34.64
2022-08-26T10:31:00.655Z,34.61
2022-08-26T10:32:03.803Z,34.57
2022-08-26T10:33:03.456Z,34.6
2022-08-26T10:34:06.267Z,34.71
2022-08-26T10:35:09.055Z,34.73
2022-08-26T10:36:12.303Z,34.79
2022-08-26T10:37:15.148Z,34.88
2022-08-26T10:38:13.631Z,34.82
2022-08-26T10:39:16.806Z,34.76
2022-08-26T10:40:19.970Z,34.7
2022-08-26T10:41:20.945Z,34.72
2022-08-26T10:42:22.123Z,34.77
2022-08-26T10:43:22.604Z,34.86
2022-08-26T10:44:25.923Z,34.88
2022-08-26T10:45:28.779Z,34.66
2022-08-26T10:46:28.827Z,34.38
2022-08-26T10:47:31.595Z,34.24
2022-08-26T10:48:35.664Z,34.13
2022-08-26T10:49:35.684Z,33.91
2022-08-26T10:50:38.518Z,33.89
2022-08-26T10:51:41.769Z,33.97
2022-08-26T10:52:44.547Z,34.15
2022-08-26T10:53:47.887Z,34.31
2022-08-26T10:54:48.011Z,34.43
2022-08-26T10:55:51.192Z,34.55
2022-08-26T10:56:53.451Z,34.63
2022-08-26T10:57:53.661Z,34.6
2022-08-26T10:58:56.916Z,34.54
2022-08-26T10:59:59.750Z,34.6
2022-08-26T11:01:02.620Z,34.76
2022-08-26T11:02:03.837Z,34.87
2022-08-26T11:03:06.189Z,34.72
2022-08-26T11:04:08.452Z,34.74
2022-08-26T11:05:08.660Z,34.7
2022-08-26T11:06:11.711Z,34.68
2022-08-26T11:07:12.161Z,34.69
2022-08-26T11:08:14.975Z,34.68
2022-08-26T11:09:17.042Z,34.72
2022-08-26T11:10:19.831Z,34.84
2022-08-26T11:11:22.604Z,34.88
2022-08-26T11:12:22.724Z,34.9
2022-08-26T11:13:24.053Z,34.97
2022-08-26T11:14:28.578Z,35.06
2022-08-26T11:15:27.060Z,35.13
2022-08-26T11:16:27.201Z,35.16
2022-08-26T11:17:27.300Z,35.24
2022-08-26T11:18:30.100Z,35.24
2022-08-26T11:19:45.530Z,35.13
2022-08-26T11:20:33.852Z,34.95
2022-08-26T11:21:34.182Z,34.92
2022-08-26T11:22:36.210Z,34.93
2022-08-26T11:23:39.273Z,34.82
2022-08-26T11:24:42.358Z,34.78
2022-08-26T11:25:45.214Z,34.76
2022-08-26T11:26:55.823Z,34.74
2022-08-26T11:27:49.610Z,34.66
2022-08-26T11:28:53.166Z,34.59
2022-08-26T11:29:54.630Z,34.5
2022-08-26T11:30:57.969Z,34.42
2022-08-26T11:31:58.016Z,34.34
2022-08-26T11:32:58.522Z,34.13
2022-08-26T11:34:01.379Z,34.07
2022-08-26T11:35:02.011Z,33.99
2022-08-26T11:36:07.416Z,33.91
2022-08-26T11:37:04.917Z,33.82
2022-08-26T11:38:05.416Z,33.72
2022-08-26T11:39:08.701Z,33.61
2022-08-26T11:40:09.755Z,33.53
2022-08-26T11:41:10.261Z,33.56
2022-08-26T11:42:10.867Z,33.56
2022-08-26T11:43:13.659Z,33.54
2022-08-26T11:44:16.641Z,33.52
2022-08-26T11:45:16.966Z,33.58
2022-08-26T11:46:20.007Z,33.5
2022-08-26T11:47:22.803Z,33.47
2022-08-26T11:48:23.964Z,33.39
2022-08-26T11:49:24.055Z,33.36
2022-08-26T11:50:26.863Z,33.34
2022-08-26T11:51:29.654Z,33.2
2022-08-26T11:52:32.760Z,33.14
2022-08-26T11:53:33.307Z,33.09
2022-08-26T11:54:36.222Z,33.02
2022-08-26T11:55:39.045Z,33
2022-08-26T11:56:42.081Z,32.97
2022-08-26T11:57:44.918Z,32.81
2022-08-26T11:58:47.697Z,32.77
2022-08-26T11:59:50.463Z,32.79
2022-08-26T12:00:53.888Z,32.76
2022-08-26T12:01:55.224Z,32.81
2022-08-26T12:02:58.343Z,32.9
2022-08-26T12:04:01.390Z,32.96
2022-08-26T12:05:01.608Z,33.03
2022-08-26T12:06:04.878Z,33.15
2022-08-26T12:07:08.526Z,33.24
2022-08-26T12:08:08.263Z,33.38
2022-08-26T12:09:09.951Z,33.47
2022-08-26T12:10:13.310Z,33.48
2022-08-26T12:11:16.149Z,33.44
2022-08-26T12:12:18.946Z,33.44
2022-08-26T12:13:22.212Z,33.48
2022-08-26T12:14:25.188Z,33.48
2022-08-26T12:15:27.195Z,33.44
2022-08-26T12:16:29.688Z,33.32
2022-08-26T12:17:29.872Z,33.29
2022-08-26T12:18:33.081Z,33.23
2022-08-26T12:19:33.382Z,33.24
2022-08-26T12:20:36.321Z,33.21
2022-08-26T12:21:37.266Z,33.22
2022-08-26T12:22:37.479Z,33.23
2022-08-26T12:23:40.562Z,33.21
2022-08-26T12:24:43.431Z,33.28
2022-08-26T12:25:46.194Z,33.35
2022-08-26T12:26:47.416Z,33.44
2022-08-26T12:27:53.606Z,33.51
2022-08-26T12:28:53.469Z,33.57
2022-08-26T12:29:56.280Z,33.66
2022-08-26T12:30:59.102Z,33.72
2022-08-26T12:32:00.378Z,33.81
2022-08-26T12:33:03.543Z,33.91
2022-08-26T12:34:05.243Z,33.99
2022-08-26T12:35:08.044Z,34.05
2022-08-26T12:36:10.914Z,34.1
2022-08-26T12:37:14.048Z,34.19
2022-08-26T12:38:14.450Z,34.29
2022-08-26T12:39:17.813Z,34.45
2022-08-26T12:40:20.657Z,34.58
2022-08-26T12:41:22.979Z,34.73
2022-08-26T12:42:25.856Z,34.85
2022-08-26T12:43:28.654Z,34.92
2022-08-26T12:44:29.557Z,35.04
2022-08-26T12:45:32.760Z,35.08
2022-08-26T12:46:36.016Z,35.11
2022-08-26T12:47:42.063Z,35.16
2022-08-26T12:48:40.214Z,35.17
2022-08-26T12:49:43.021Z,35.17
2022-08-26T12:50:45.831Z,35.05
2022-08-26T12:51:48.606Z,34.97
2022-08-26T12:52:51.403Z,34.93
2022-08-26T12:53:54.169Z,34.91
2022-08-26T12:54:57.215Z,34.9
2022-08-26T12:56:00.139Z,34.89
2022-08-26T12:57:02.955Z,34.81
2022-08-26T12:58:05.799Z,34.79
2022-08-26T12:59:10.251Z,34.75
2022-08-26T13:00:12.151Z,34.73
2022-08-26T13:01:15.021Z,34.75
2022-08-26T13:02:18.419Z,34.74
2022-08-26T13:03:21.579Z,34.73
2022-08-26T13:04:24.487Z,34.59
2022-08-26T13:05:27.272Z,34.43
2022-08-26T13:06:30.087Z,34.46
2022-08-26T13:07:32.921Z,34.35
2022-08-26T13:08:35.691Z,34.3
2022-08-26T13:09:38.486Z,34.34
2022-08-26T13:10:41.271Z,34.37
2022-08-26T13:11:44.078Z,34.36
2022-08-26T13:12:46.866Z,34.4
2022-08-26T13:13:49.701Z,34.39
2022-08-26T13:14:52.654Z,34.38
2022-08-26T13:15:55.476Z,34.42
2022-08-26T13:16:55.702Z,34.45
2022-08-26T13:17:58.492Z,34.55
2022-08-26T13:19:01.384Z,34.68
2022-08-26T13:20:04.515Z,34.87
2022-08-26T13:21:06.069Z,35.01
2022-08-26T13:22:08.832Z,35.16
2022-08-26T13:23:11.894Z,35.24
2022-08-26T13:24:12.413Z,35.26
2022-08-26T13:25:15.189Z,35.28
2022-08-26T13:26:15.703Z,35.23
2022-08-26T13:27:18.503Z,35.21
2022-08-26T13:28:21.322Z,35.22
2022-08-26T13:29:24.081Z,35.19
2022-08-26T13:30:24.104Z,35.22
2022-08-26T13:31:26.194Z,35.28
2022-08-26T13:32:27.185Z,35.31
2022-08-26T13:33:27.425Z,35.33
2022-08-26T13:34:27.930Z,35.4
2022-08-26T13:35:30.711Z,35.46
2022-08-26T13:36:33.501Z,35.52
2022-08-26T13:37:36.276Z,35.57
2022-08-26T13:38:39.054Z,35.65
2022-08-26T13:39:41.847Z,35.74
2022-08-26T13:40:44.678Z,35.78
2022-08-26T13:41:47.491Z,35.82
2022-08-26T13:42:50.269Z,35.84
2022-08-26T13:43:53.067Z,35.8
2022-08-26T13:44:55.851Z,35.77
2022-08-26T13:45:58.612Z,35.75
2022-08-26T13:47:01.409Z,35.72
2022-08-26T13:48:04.196Z,35.7
2022-08-26T13:49:07.015Z,35.59
2022-08-26T13:50:09.805Z,35.55
2022-08-26T13:51:12.590Z,35.45
2022-08-26T13:52:15.444Z,35.39
2022-08-26T13:53:18.229Z,35.14
2022-08-26T13:54:21.082Z,35.06
2022-08-26T13:55:23.950Z,34.94
2022-08-26T13:56:26.821Z,34.86
2022-08-26T13:57:29.757Z,34.84
2022-08-26T13:58:33.009Z,34.83
2022-08-26T13:59:35.796Z,34.79
2022-08-26T14:00:36.162Z,34.76
2022-08-26T14:01:39.277Z,34.72
2022-08-26T14:02:42.052Z,34.65
2022-08-26T14:03:45.007Z,34.59
2022-08-26T14:04:45.000Z,34.57
2022-08-26T14:05:47.805Z,34.51
2022-08-26T14:06:50.609Z,34.44
2022-08-26T14:07:53.391Z,34.37
2022-08-26T14:08:56.165Z,34.32
2022-08-26T14:09:58.984Z,34.27
2022-08-26T14:11:01.777Z,34.17
2022-08-26T14:12:04.555Z,34.07
2022-08-26T14:13:07.520Z,33.99
2022-08-26T14:14:10.716Z,33.99
2022-08-26T14:15:13.532Z,34
2022-08-26T14:16:16.378Z,34.05
2022-08-26T14:17:19.770Z,34.09
2022-08-26T14:18:22.916Z,34.13
2022-08-26T14:19:24.392Z,34.17
2022-08-26T14:20:27.410Z,34.2
2022-08-26T14:21:30.179Z,34.19
2022-08-26T14:22:32.951Z,34.16
2022-08-26T14:23:35.706Z,34.12
2022-08-26T14:24:38.493Z,34.12
2022-08-26T14:25:41.279Z,34.12
2022-08-26T14:26:44.071Z,34.08
2022-08-26T14:27:46.883Z,34.06
2022-08-26T14:28:49.662Z,33.97
2022-08-26T14:29:52.516Z,33.94
2022-08-26T14:30:55.380Z,33.84
2022-08-26T14:31:58.443Z,33.76
2022-08-26T14:33:01.218Z,33.63
2022-08-26T14:34:04.007Z,33.5
2022-08-26T14:35:06.785Z,33.41
2022-08-26T14:36:09.556Z,33.31
2022-08-26T14:37:14.810Z,33.21
2022-08-26T14:38:14.944Z,33.09
2022-08-26T14:39:17.716Z,32.98
2022-08-26T14:40:20.685Z,32.85
2022-08-26T14:41:23.927Z,32.76
2022-08-26T14:42:26.724Z,32.71
2022-08-26T14:43:27.602Z,32.68
2022-08-26T14:44:30.373Z,32.62
2022-08-26T14:45:33.216Z,32.59
2022-08-26T14:46:36.406Z,32.55
2022-08-26T14:47:39.604Z,32.51
2022-08-26T14:48:42.282Z,32.44
2022-08-26T14:49:45.098Z,32.38
2022-08-26T14:50:47.954Z,32.33
2022-08-26T14:51:50.729Z,32.29
2022-08-26T14:52:53.558Z,32.29
2022-08-26T14:53:56.363Z,32.31
2022-08-26T14:54:59.159Z,32.27
2022-08-26T14:56:01.952Z,32.26
2022-08-26T14:57:04.757Z,32.24
2022-08-26T14:58:07.762Z,32.2
2022-08-26T14:59:07.887Z,32.15
2022-08-26T15:00:10.679Z,32.12
2022-08-26T15:01:13.472Z,32.11
2022-08-26T15:02:30.925Z,32.07
2022-08-26T15:04:19.210Z,32.03
2022-08-26T15:05:21.995Z,32
2022-08-26T15:06:24.790Z,32.01
2022-08-26T15:07:27.575Z,32.02
2022-08-26T15:08:30.389Z,32.02
2022-08-26T15:09:33.191Z,31.96
2022-08-26T15:10:36.019Z,31.94
2022-08-26T15:11:38.833Z,31.91
2022-08-26T15:12:41.632Z,31.89
2022-08-26T15:13:44.425Z,31.88
2022-08-26T15:14:47.195Z,31.81
2022-08-26T15:15:50.010Z,31.73
2022-08-26T15:16:53.221Z,31.73
2022-08-26T15:17:56.013Z,31.72
2022-08-26T15:18:58.849Z,31.69
2022-08-26T15:20:01.751Z,31.67
2022-08-26T15:21:04.557Z,31.67
2022-08-26T15:22:07.360Z,31.66
2022-08-26T15:23:10.325Z,31.59
2022-08-26T15:24:11.097Z,31.48
2022-08-26T15:25:13.854Z,31.28
2022-08-26T15:26:16.673Z,31.03
2022-08-26T15:27:19.446Z,30.73
2022-08-26T15:28:22.260Z,30.58
2022-08-26T15:29:25.245Z,30.46
2022-08-26T15:30:28.010Z,30.35
2022-08-26T15:31:30.882Z,30.23
2022-08-26T15:32:34.072Z,30.14
2022-08-26T15:33:36.884Z,30.03
2022-08-26T15:34:39.805Z,29.94
2022-08-26T15:35:42.900Z,29.79
2022-08-26T15:36:46.013Z,29.89
2022-08-26T15:37:56.462Z,29.84
2022-08-26T15:38:52.378Z,29.83
2022-08-26T15:39:55.207Z,29.83
2022-08-26T15:41:02.353Z,29.75
2022-08-26T15:41:59.143Z,29.69
2022-08-26T15:43:18.340Z,29.57
2022-08-26T15:44:04.238Z,29.6
2022-08-26T15:45:07.018Z,29.63
2022-08-26T15:46:09.814Z,29.65
2022-08-26T15:47:12.892Z,29.57
2022-08-26T15:48:16.187Z,29.61
2022-08-26T15:49:16.989Z,29.64
2022-08-26T15:50:18.244Z,29.68
2022-08-26T15:51:21.009Z,29.66
2022-08-26T15:52:21.971Z,29.66
2022-08-26T15:53:24.748Z,29.7
2022-08-26T15:54:27.558Z,29.75
2022-08-26T15:55:30.328Z,29.76
2022-08-26T15:56:30.462Z,29.81
2022-08-26T15:57:33.259Z,29.81
2022-08-26T15:58:36.281Z,29.8
2022-08-26T15:59:39.190Z,29.83
2022-08-26T16:00:41.975Z,29.86
2022-08-26T16:01:44.902Z,29.82
2022-08-26T16:02:48.003Z,29.85
2022-08-26T16:03:50.775Z,29.88
2022-08-26T16:04:53.590Z,29.86
2022-08-26T16:05:53.829Z,29.77
2022-08-26T16:06:57.059Z,29.66
2022-08-26T16:07:59.938Z,29.53
2022-08-26T16:09:02.780Z,29.48
2022-08-26T16:10:05.580Z,29.51
2022-08-26T16:11:08.406Z,29.35
2022-08-26T16:12:11.213Z,29.42
2022-08-26T16:13:14.370Z,29.22
2022-08-26T16:14:15.019Z,29.15
2022-08-26T16:15:17.820Z,29.2
2022-08-26T16:17:23.605Z,28.97
2022-08-26T16:18:26.121Z,28.95
2022-08-26T16:22:39.479Z,29.1
2022-08-26T16:23:33.461Z,29.16
2022-08-26T16:24:39.424Z,29.19
2022-08-26T16:25:35.763Z,29.14
2022-08-26T16:26:41.856Z,28.99
2022-08-26T16:27:42.109Z,28.9
2022-08-26T16:28:52.860Z,28.75
2022-08-26T22:11:08.201Z,24.52
2022-08-26T22:13:16.902Z,24.42
2022-08-26T22:14:19.874Z,24.37
2022-08-26T22:15:28.082Z,24.47
2022-08-26T22:16:24.963Z,24.5
2022-08-26T22:17:24.979Z,24.57
2022-08-26T22:18:27.972Z,24.57
2022-08-26T22:19:34.035Z,24.4
2022-08-26T22:20:32.407Z,24.41
2022-08-26T22:21:35.812Z,24.35
2022-08-26T22:22:36.033Z,24.23
2022-08-26T22:23:38.975Z,24.07
2022-08-26T22:24:42.127Z,23.89
2022-08-26T22:25:44.323Z,23.69
2022-08-26T22:26:48.765Z,23.61
2022-08-26T22:27:48.113Z,23.53
2022-08-26T22:28:50.918Z,23.42
2022-08-26T22:29:51.796Z,23.36
2022-08-26T22:30:54.581Z,23.28
2022-08-26T22:31:57.427Z,23.2
2022-08-26T22:33:00.775Z,23.11
2022-08-26T22:34:03.632Z,23.13
2022-08-26T22:35:11.297Z,23.14
2022-08-26T22:36:08.224Z,23.14
2022-08-26T22:37:10.989Z,23.18
2022-08-26T22:38:13.747Z,23.23
2022-08-26T22:39:16.517Z,23.28
2022-08-26T22:40:19.337Z,23.33
2022-08-26T22:41:20.503Z,23.32
2022-08-26T22:42:23.354Z,23.35
2022-08-26T22:43:26.109Z,23.43
2022-08-26T22:44:28.882Z,23.49
2022-08-26T22:45:31.786Z,23.4
2022-08-26T22:46:32.219Z,23.4
2022-08-26T22:47:34.970Z,23.53
2022-08-26T22:48:37.339Z,23.51
2022-08-26T22:49:40.307Z,23.42
2022-08-26T22:50:43.101Z,23.42
2022-08-26T22:51:45.888Z,23.28
2022-08-26T22:52:48.685Z,23.3
2022-08-26T22:53:51.474Z,23.32
2022-08-26T22:54:54.267Z,23.26
2022-08-26T22:55:57.041Z,23.25
2022-08-26T22:56:59.828Z,23.23
2022-08-26T22:58:02.598Z,23.26
2022-08-26T22:59:05.645Z,23.15
2022-08-26T23:00:08.416Z,23.13
2022-08-26T23:01:10.786Z,23.02
2022-08-26T23:02:13.872Z,23.02
2022-08-26T23:03:16.753Z,23.06
2022-08-26T23:04:19.913Z,23.04
2022-08-26T23:05:22.698Z,23.08
2022-08-26T23:06:25.509Z,23.02
2022-08-26T23:07:28.304Z,23.07
2022-08-26T23:08:31.100Z,23.11
2022-08-26T23:09:33.872Z,23.17
2022-08-26T23:10:36.644Z,23.22
2022-08-26T23:11:39.423Z,23.25
2022-08-26T23:12:41.739Z,23.26
2022-08-26T23:13:44.541Z,23.28
2022-08-26T23:14:47.314Z,23.31
2022-08-26T23:15:50.092Z,23.32
2022-08-26T23:16:52.991Z,23.34
2022-08-26T23:17:58.486Z,23.34
2022-08-26T23:18:54.957Z,23.38
2022-08-26T23:19:57.737Z,23.4
2022-08-26T23:21:00.549Z,23.46
2022-08-26T23:22:03.315Z,23.5
2022-08-26T23:23:06.096Z,23.53
2022-08-26T23:24:08.905Z,23.58
2022-08-26T23:25:11.708Z,23.61
2022-08-26T23:26:17.624Z,23.6
2022-08-26T23:27:17.212Z,23.61
2022-08-26T23:28:20.007Z,23.6
2022-08-26T23:29:22.779Z,23.56
2022-08-26T23:30:25.552Z,23.55
2022-08-26T23:31:28.357Z,23.54
2022-08-26T23:32:29.462Z,23.59
2022-08-26T23:33:32.248Z,23.62
2022-08-26T23:34:35.036Z,23.68
2022-08-26T23:35:35.091Z,23.74
2022-08-26T23:36:37.874Z,23.78
2022-08-26T23:37:40.646Z,23.82
2022-08-26T23:38:43.929Z,23.84
2022-08-26T23:39:44.259Z,23.83
2022-08-26T23:40:47.072Z,23.89
2022-08-26T23:41:49.861Z,23.91
2022-08-26T23:42:52.609Z,23.92
2022-08-26T23:43:55.358Z,23.94
2022-08-26T23:44:58.121Z,24.02
2022-08-26T23:46:00.929Z,24.06
2022-08-26T23:47:03.936Z,24.12
2022-08-26T23:48:06.802Z,24.17
2022-08-26T23:49:10.000Z,24.21
2022-08-26T23:50:12.758Z,24.25
2022-08-26T23:51:15.548Z,24.24
2022-08-26T23:52:18.337Z,24.27
2022-08-26T23:53:21.135Z,24.26
2022-08-26T23:54:23.905Z,24.28
2022-08-26T23:55:26.678Z,24.33
2022-08-26T23:56:29.446Z,24.36
2022-08-26T23:57:32.214Z,24.43
2022-08-26T23:58:34.971Z,24.48
2022-08-26T23:59:37.724Z,24.56
